sensor_id;sensor_type;location;lat;lon;timestamp;P1;P2;P0
12542;PMS3003;6337;49.556;25.594;2023-04-20T00:00:19;13.20;5.50;
12542;PMS3003;6337;49.556;25.594;2023-04-20T00:02:47;10.27;5.00;
12542;PMS3003;6337;49.556;25.594;2023-04-20T00:05:15;26.03;6.03;
12542;PMS3003;6337;49.556;25.594;2023-04-20T00:07:44;8.53;4.30;
12542;PMS3003;6337;49.556;25.594;2023-04-20T00:10:12;11.07;4.10;
12542;PMS3003;6337;49.556;25.594;2023-04-20T00:12:41;15.00;6.17;
12542;PMS3003;6337;49.556;25.594;2023-04-20T00:15:09;14.63;5.17;
12542;PMS3003;6337;49.556;25.594;2023-04-20T00:17:37;10.70;4.90;
12542;PMS3003;6337;49.556;25.594;2023-04-20T00:20:05;10.40;5.03;
12542;PMS3003;6337;49.556;25.594;2023-04-20T00:22:33;6.10;3.77;
12542;PMS3003;6337;49.556;25.594;2023-04-20T00:25:03;11.37;5.13;
12542;PMS3003;6337;49.556;25.594;2023-04-20T00:27:31;10.93;4.83;
12542;PMS3003;6337;49.556;25.594;2023-04-20T00:29:59;17.30;5.27;
12542;PMS3003;6337;49.556;25.594;2023-04-20T00:32:27;12.13;5.47;
12542;PMS3003;6337;49.556;25.594;2023-04-20T00:34:55;18.67;4.90;
12542;PMS3003;6337;49.556;25.594;2023-04-20T00:37:23;18.07;6.60;
12542;PMS3003;6337;49.556;25.594;2023-04-20T00:39:51;13.90;4.53;
12542;PMS3003;6337;49.556;25.594;2023-04-20T00:42:25;12.43;4.60;
12542;PMS3003;6337;49.556;25.594;2023-04-20T00:44:53;17.13;5.13;
12542;PMS3003;6337;49.556;25.594;2023-04-20T00:47:20;13.23;6.23;
12542;PMS3003;6337;49.556;25.594;2023-04-20T00:49:48;10.50;4.53;
12542;PMS3003;6337;49.556;25.594;2023-04-20T00:52:16;15.90;5.80;
12542;PMS3003;6337;49.556;25.594;2023-04-20T00:54:43;16.83;5.37;
12542;PMS3003;6337;49.556;25.594;2023-04-20T00:57:12;12.90;4.67;
12542;PMS3003;6337;49.556;25.594;2023-04-20T00:59:42;18.30;5.67;
12542;PMS3003;6337;49.556;25.594;2023-04-20T01:02:10;13.30;5.43;
12542;PMS3003;6337;49.556;25.594;2023-04-20T01:04:37;12.53;7.90;
12542;PMS3003;6337;49.556;25.594;2023-04-20T01:07:05;13.20;5.80;
12542;PMS3003;6337;49.556;25.594;2023-04-20T01:09:33;9.40;5.07;
12542;PMS3003;6337;49.556;25.594;2023-04-20T01:12:02;21.17;5.90;
12542;PMS3003;6337;49.556;25.594;2023-04-20T01:14:31;10.97;5.67;
12542;PMS3003;6337;49.556;25.594;2023-04-20T01:17:00;9.50;5.60;
12542;PMS3003;6337;49.556;25.594;2023-04-20T01:19:28;8.77;5.60;
12542;PMS3003;6337;49.556;25.594;2023-04-20T01:21:57;15.97;5.80;
12542;PMS3003;6337;49.556;25.594;2023-04-20T01:24:28;15.50;8.83;
12542;PMS3003;6337;49.556;25.594;2023-04-20T01:26:55;15.20;6.33;
12542;PMS3003;6337;49.556;25.594;2023-04-20T01:29:23;14.00;6.60;
12542;PMS3003;6337;49.556;25.594;2023-04-20T01:31:52;16.00;7.40;
12542;PMS3003;6337;49.556;25.594;2023-04-20T01:34:21;22.33;5.20;
12542;PMS3003;6337;49.556;25.594;2023-04-20T01:36:49;15.33;6.23;
12542;PMS3003;6337;49.556;25.594;2023-04-20T01:39:18;16.57;7.77;
12542;PMS3003;6337;49.556;25.594;2023-04-20T01:41:48;9.97;6.37;
12542;PMS3003;6337;49.556;25.594;2023-04-20T01:44:15;8.10;5.50;
12542;PMS3003;6337;49.556;25.594;2023-04-20T01:46:44;31.53;6.50;
12542;PMS3003;6337;49.556;25.594;2023-04-20T01:49:13;10.83;5.87;
12542;PMS3003;6337;49.556;25.594;2023-04-20T01:51:41;15.87;6.20;
12542;PMS3003;6337;49.556;25.594;2023-04-20T01:54:09;14.07;6.00;
12542;PMS3003;6337;49.556;25.594;2023-04-20T01:56:36;12.57;5.70;
12542;PMS3003;6337;49.556;25.594;2023-04-20T01:59:05;27.23;5.93;
12542;PMS3003;6337;49.556;25.594;2023-04-20T02:01:33;14.10;5.57;
12542;PMS3003;6337;49.556;25.594;2023-04-20T02:04:01;7.40;6.07;
12542;PMS3003;6337;49.556;25.594;2023-04-20T02:06:29;29.63;6.30;
12542;PMS3003;6337;49.556;25.594;2023-04-20T02:08:57;17.27;5.80;
12542;PMS3003;6337;49.556;25.594;2023-04-20T02:11:29;15.73;6.40;
12542;PMS3003;6337;49.556;25.594;2023-04-20T02:13:57;14.20;5.20;
12542;PMS3003;6337;49.556;25.594;2023-04-20T02:16:37;12.00;6.43;
12542;PMS3003;6337;49.556;25.594;2023-04-20T02:19:04;10.77;6.50;
12542;PMS3003;6337;49.556;25.594;2023-04-20T02:21:32;16.83;7.17;
12542;PMS3003;6337;49.556;25.594;2023-04-20T02:24:00;16.97;6.00;
12542;PMS3003;6337;49.556;25.594;2023-04-20T02:26:28;9.73;5.57;
12542;PMS3003;6337;49.556;25.594;2023-04-20T02:28:55;7.03;4.90;
12542;PMS3003;6337;49.556;25.594;2023-04-20T02:31:24;17.13;7.57;
12542;PMS3003;6337;49.556;25.594;2023-04-20T02:33:54;9.63;6.17;
12542;PMS3003;6337;49.556;25.594;2023-04-20T02:36:22;14.30;6.83;
12542;PMS3003;6337;49.556;25.594;2023-04-20T02:38:50;15.63;5.77;
12542;PMS3003;6337;49.556;25.594;2023-04-20T02:41:18;14.07;6.50;
12542;PMS3003;6337;49.556;25.594;2023-04-20T02:43:46;14.37;7.33;
12542;PMS3003;6337;49.556;25.594;2023-04-20T02:46:13;19.37;6.27;
12542;PMS3003;6337;49.556;25.594;2023-04-20T02:48:44;12.00;5.67;
12542;PMS3003;6337;49.556;25.594;2023-04-20T02:51:13;8.40;5.13;
12542;PMS3003;6337;49.556;25.594;2023-04-20T02:53:44;18.77;6.30;
12542;PMS3003;6337;49.556;25.594;2023-04-20T02:56:11;11.10;6.03;
12542;PMS3003;6337;49.556;25.594;2023-04-20T02:58:39;9.70;5.50;
12542;PMS3003;6337;49.556;25.594;2023-04-20T03:01:07;10.73;6.60;
12542;PMS3003;6337;49.556;25.594;2023-04-20T03:03:34;18.23;6.60;
12542;PMS3003;6337;49.556;25.594;2023-04-20T03:06:02;14.93;5.13;
12542;PMS3003;6337;49.556;25.594;2023-04-20T03:08:31;11.13;5.83;
12542;PMS3003;6337;49.556;25.594;2023-04-20T03:10:59;14.63;5.70;
12542;PMS3003;6337;49.556;25.594;2023-04-20T03:13:29;15.40;5.80;
12542;PMS3003;6337;49.556;25.594;2023-04-20T03:15:58;14.33;6.33;
12542;PMS3003;6337;49.556;25.594;2023-04-20T03:18:26;17.70;5.13;
12542;PMS3003;6337;49.556;25.594;2023-04-20T03:20:53;9.97;5.20;
12542;PMS3003;6337;49.556;25.594;2023-04-20T03:23:21;19.17;6.23;
12542;PMS3003;6337;49.556;25.594;2023-04-20T03:25:53;15.00;6.07;
12542;PMS3003;6337;49.556;25.594;2023-04-20T03:28:21;17.97;7.63;
12542;PMS3003;6337;49.556;25.594;2023-04-20T03:30:51;23.10;6.80;
12542;PMS3003;6337;49.556;25.594;2023-04-20T03:33:20;12.33;5.70;
12542;PMS3003;6337;49.556;25.594;2023-04-20T03:35:49;20.00;7.00;
12542;PMS3003;6337;49.556;25.594;2023-04-20T03:38:17;14.60;5.67;
12542;PMS3003;6337;49.556;25.594;2023-04-20T03:40:45;27.20;8.60;
12542;PMS3003;6337;49.556;25.594;2023-04-20T03:43:14;22.20;7.90;
12542;PMS3003;6337;49.556;25.594;2023-04-20T03:45:45;16.57;7.10;
12542;PMS3003;6337;49.556;25.594;2023-04-20T03:48:13;16.80;5.63;
12542;PMS3003;6337;49.556;25.594;2023-04-20T03:50:42;13.13;5.57;
12542;PMS3003;6337;49.556;25.594;2023-04-20T03:53:11;16.93;6.10;
12542;PMS3003;6337;49.556;25.594;2023-04-20T03:55:39;17.10;6.17;
12542;PMS3003;6337;49.556;25.594;2023-04-20T03:58:07;17.40;6.40;
12542;PMS3003;6337;49.556;25.594;2023-04-20T04:00:37;27.53;5.57;
12542;PMS3003;6337;49.556;25.594;2023-04-20T04:03:06;16.20;6.03;
12542;PMS3003;6337;49.556;25.594;2023-04-20T04:05:34;15.97;6.03;
12542;PMS3003;6337;49.556;25.594;2023-04-20T04:08:01;17.13;7.07;
12542;PMS3003;6337;49.556;25.594;2023-04-20T04:10:29;18.17;6.57;
12542;PMS3003;6337;49.556;25.594;2023-04-20T04:12:58;18.43;6.83;
12542;PMS3003;6337;49.556;25.594;2023-04-20T04:15:26;19.43;5.60;
12542;PMS3003;6337;49.556;25.594;2023-04-20T04:17:57;15.03;5.67;
12542;PMS3003;6337;49.556;25.594;2023-04-20T04:20:25;34.43;7.33;
12542;PMS3003;6337;49.556;25.594;2023-04-20T04:22:52;27.90;6.17;
12542;PMS3003;6337;49.556;25.594;2023-04-20T04:25:20;11.07;6.03;
12542;PMS3003;6337;49.556;25.594;2023-04-20T04:27:48;18.10;6.53;
12542;PMS3003;6337;49.556;25.594;2023-04-20T04:30:18;16.20;6.33;
12542;PMS3003;6337;49.556;25.594;2023-04-20T04:32:49;20.13;6.20;
12542;PMS3003;6337;49.556;25.594;2023-04-20T04:35:20;16.43;6.27;
12542;PMS3003;6337;49.556;25.594;2023-04-20T04:37:47;31.37;5.10;
12542;PMS3003;6337;49.556;25.594;2023-04-20T04:40:18;12.60;4.53;
12542;PMS3003;6337;49.556;25.594;2023-04-20T04:42:47;8.90;4.50;
12542;PMS3003;6337;49.556;25.594;2023-04-20T04:45:15;18.77;5.97;
12542;PMS3003;6337;49.556;25.594;2023-04-20T04:47:49;13.80;5.40;
12542;PMS3003;6337;49.556;25.594;2023-04-20T04:50:20;17.90;5.33;
12542;PMS3003;6337;49.556;25.594;2023-04-20T04:52:47;5.60;4.30;
12542;PMS3003;6337;49.556;25.594;2023-04-20T04:55:16;12.97;4.57;
12542;PMS3003;6337;49.556;25.594;2023-04-20T04:57:44;19.00;5.20;
12542;PMS3003;6337;49.556;25.594;2023-04-20T05:00:13;21.40;4.60;
12542;PMS3003;6337;49.556;25.594;2023-04-20T05:02:42;20.20;5.90;
12542;PMS3003;6337;49.556;25.594;2023-04-20T05:05:10;8.43;4.77;
12542;PMS3003;6337;49.556;25.594;2023-04-20T05:07:42;15.23;6.80;
12542;PMS3003;6337;49.556;25.594;2023-04-20T05:10:11;22.90;5.70;
12542;PMS3003;6337;49.556;25.594;2023-04-20T05:12:38;13.30;4.40;
12542;PMS3003;6337;49.556;25.594;2023-04-20T05:15:06;10.00;3.77;
12542;PMS3003;6337;49.556;25.594;2023-04-20T05:17:35;8.87;4.17;
12542;PMS3003;6337;49.556;25.594;2023-04-20T05:20:03;16.93;3.80;
12542;PMS3003;6337;49.556;25.594;2023-04-20T05:22:32;18.03;5.40;
12542;PMS3003;6337;49.556;25.594;2023-04-20T05:25:01;12.07;3.70;
12542;PMS3003;6337;49.556;25.594;2023-04-20T05:27:29;16.10;3.47;
12542;PMS3003;6337;49.556;25.594;2023-04-20T05:29:57;11.63;3.30;
12542;PMS3003;6337;49.556;25.594;2023-04-20T05:32:24;6.53;3.60;
12542;PMS3003;6337;49.556;25.594;2023-04-20T05:34:52;12.30;4.07;
12542;PMS3003;6337;49.556;25.594;2023-04-20T05:37:20;12.77;3.30;
12542;PMS3003;6337;49.556;25.594;2023-04-20T05:39:47;10.43;3.13;
12542;PMS3003;6337;49.556;25.594;2023-04-20T05:42:17;5.83;3.20;
12542;PMS3003;6337;49.556;25.594;2023-04-20T05:44:45;17.70;3.80;
12542;PMS3003;6337;49.556;25.594;2023-04-20T05:47:13;18.10;4.20;
12542;PMS3003;6337;49.556;25.594;2023-04-20T05:49:41;17.73;4.50;
12542;PMS3003;6337;49.556;25.594;2023-04-20T05:52:11;22.70;4.20;
12542;PMS3003;6337;49.556;25.594;2023-04-20T05:54:40;27.10;4.43;
12542;PMS3003;6337;49.556;25.594;2023-04-20T05:57:11;15.57;3.37;
12542;PMS3003;6337;49.556;25.594;2023-04-20T05:59:40;15.50;4.20;
12542;PMS3003;6337;49.556;25.594;2023-04-20T06:02:09;25.47;5.00;
12542;PMS3003;6337;49.556;25.594;2023-04-20T06:04:36;18.60;3.73;
12542;PMS3003;6337;49.556;25.594;2023-04-20T06:07:08;22.37;3.10;
12542;PMS3003;6337;49.556;25.594;2023-04-20T06:09:42;16.27;5.07;
12542;PMS3003;6337;49.556;25.594;2023-04-20T06:12:10;16.93;3.63;
12542;PMS3003;6337;49.556;25.594;2023-04-20T06:14:38;21.10;3.30;
12542;PMS3003;6337;49.556;25.594;2023-04-20T06:17:08;13.87;4.10;
12542;PMS3003;6337;49.556;25.594;2023-04-20T06:19:36;23.40;4.63;
12542;PMS3003;6337;49.556;25.594;2023-04-20T06:22:05;37.97;4.43;
12542;PMS3003;6337;49.556;25.594;2023-04-20T06:24:32;21.77;6.90;
12542;PMS3003;6337;49.556;25.594;2023-04-20T06:27:01;14.37;3.37;
12542;PMS3003;6337;49.556;25.594;2023-04-20T06:29:29;26.27;3.57;
12542;PMS3003;6337;49.556;25.594;2023-04-20T06:31:58;25.93;4.23;
12542;PMS3003;6337;49.556;25.594;2023-04-20T06:34:28;29.07;3.40;
12542;PMS3003;6337;49.556;25.594;2023-04-20T06:36:56;26.97;3.73;
12542;PMS3003;6337;49.556;25.594;2023-04-20T06:39:26;23.97;6.63;
12542;PMS3003;6337;49.556;25.594;2023-04-20T06:41:53;41.80;4.50;
12542;PMS3003;6337;49.556;25.594;2023-04-20T06:44:21;19.87;2.90;
12542;PMS3003;6337;49.556;25.594;2023-04-20T06:46:49;16.70;3.57;
12542;PMS3003;6337;49.556;25.594;2023-04-20T06:49:18;27.10;3.00;
12542;PMS3003;6337;49.556;25.594;2023-04-20T06:51:52;22.73;2.90;
12542;PMS3003;6337;49.556;25.594;2023-04-20T06:54:20;21.13;4.47;
12542;PMS3003;6337;49.556;25.594;2023-04-20T06:56:51;13.67;3.17;
12542;PMS3003;6337;49.556;25.594;2023-04-20T06:59:19;13.67;3.33;
12542;PMS3003;6337;49.556;25.594;2023-04-20T07:01:47;23.73;5.20;
12542;PMS3003;6337;49.556;25.594;2023-04-20T07:04:15;18.90;4.87;
12542;PMS3003;6337;49.556;25.594;2023-04-20T07:06:44;16.13;4.27;
12542;PMS3003;6337;49.556;25.594;2023-04-20T07:09:15;9.50;2.77;
12542;PMS3003;6337;49.556;25.594;2023-04-20T07:11:43;24.60;3.93;
12542;PMS3003;6337;49.556;25.594;2023-04-20T07:14:11;12.27;3.07;
12542;PMS3003;6337;49.556;25.594;2023-04-20T07:16:39;21.93;4.57;
12542;PMS3003;6337;49.556;25.594;2023-04-20T07:19:06;22.63;4.10;
12542;PMS3003;6337;49.556;25.594;2023-04-20T07:21:34;15.00;3.47;
12542;PMS3003;6337;49.556;25.594;2023-04-20T07:24:02;22.93;5.80;
12542;PMS3003;6337;49.556;25.594;2023-04-20T07:26:32;17.57;3.63;
12542;PMS3003;6337;49.556;25.594;2023-04-20T07:29:02;18.23;4.00;
12542;PMS3003;6337;49.556;25.594;2023-04-20T07:31:30;18.17;2.80;
12542;PMS3003;6337;49.556;25.594;2023-04-20T07:33:58;18.33;4.10;
12542;PMS3003;6337;49.556;25.594;2023-04-20T07:36:28;11.63;3.50;
12542;PMS3003;6337;49.556;25.594;2023-04-20T07:38:57;18.93;4.53;
12542;PMS3003;6337;49.556;25.594;2023-04-20T07:41:24;43.47;6.57;
12542;PMS3003;6337;49.556;25.594;2023-04-20T07:43:57;15.20;3.63;
12542;PMS3003;6337;49.556;25.594;2023-04-20T07:46:25;26.43;4.60;
12542;PMS3003;6337;49.556;25.594;2023-04-20T07:48:54;19.27;5.90;
12542;PMS3003;6337;49.556;25.594;2023-04-20T07:51:24;27.77;4.73;
12542;PMS3003;6337;49.556;25.594;2023-04-20T07:53:54;32.87;5.17;
12542;PMS3003;6337;49.556;25.594;2023-04-20T07:56:22;38.57;4.37;
12542;PMS3003;6337;49.556;25.594;2023-04-20T07:58:50;25.23;5.07;
12542;PMS3003;6337;49.556;25.594;2023-04-20T08:01:23;17.80;3.83;
12542;PMS3003;6337;49.556;25.594;2023-04-20T08:03:53;32.50;3.73;
12542;PMS3003;6337;49.556;25.594;2023-04-20T08:06:22;16.80;3.80;
12542;PMS3003;6337;49.556;25.594;2023-04-20T08:08:51;17.87;6.03;
12542;PMS3003;6337;49.556;25.594;2023-04-20T08:11:19;18.60;3.17;
12542;PMS3003;6337;49.556;25.594;2023-04-20T08:13:51;20.87;4.43;
12542;PMS3003;6337;49.556;25.594;2023-04-20T08:16:18;27.03;3.20;
12542;PMS3003;6337;49.556;25.594;2023-04-20T08:18:48;23.97;4.70;
12542;PMS3003;6337;49.556;25.594;2023-04-20T08:21:16;10.73;3.30;
12542;PMS3003;6337;49.556;25.594;2023-04-20T08:23:47;22.77;3.20;
12542;PMS3003;6337;49.556;25.594;2023-04-20T08:26:15;17.47;3.90;
12542;PMS3003;6337;49.556;25.594;2023-04-20T08:28:45;7.03;2.83;
12542;PMS3003;6337;49.556;25.594;2023-04-20T08:31:14;17.13;5.83;
12542;PMS3003;6337;49.556;25.594;2023-04-20T08:33:44;17.77;2.87;
12542;PMS3003;6337;49.556;25.594;2023-04-20T08:36:13;21.67;4.10;
12542;PMS3003;6337;49.556;25.594;2023-04-20T08:38:40;17.77;3.20;
12542;PMS3003;6337;49.556;25.594;2023-04-20T08:41:12;13.97;2.83;
12542;PMS3003;6337;49.556;25.594;2023-04-20T08:43:40;13.87;3.23;
12542;PMS3003;6337;49.556;25.594;2023-04-20T08:46:10;11.77;2.90;
12542;PMS3003;6337;49.556;25.594;2023-04-20T08:48:40;22.63;4.70;
12542;PMS3003;6337;49.556;25.594;2023-04-20T08:51:09;19.27;2.57;
12542;PMS3003;6337;49.556;25.594;2023-04-20T08:53:42;8.53;2.40;
12542;PMS3003;6337;49.556;25.594;2023-04-20T08:56:10;14.47;3.73;
12542;PMS3003;6337;49.556;25.594;2023-04-20T08:58:38;14.13;3.97;
12542;PMS3003;6337;49.556;25.594;2023-04-20T09:01:07;9.00;2.73;
12542;PMS3003;6337;49.556;25.594;2023-04-20T09:03:37;15.53;3.43;
12542;PMS3003;6337;49.556;25.594;2023-04-20T09:06:12;14.37;2.93;
12542;PMS3003;6337;49.556;25.594;2023-04-20T09:08:49;15.73;2.80;
12542;PMS3003;6337;49.556;25.594;2023-04-20T09:11:20;27.50;3.37;
12542;PMS3003;6337;49.556;25.594;2023-04-20T09:14:00;18.23;3.83;
12542;PMS3003;6337;49.556;25.594;2023-04-20T09:16:30;20.83;3.10;
12542;PMS3003;6337;49.556;25.594;2023-04-20T09:19:02;24.90;4.10;
12542;PMS3003;6337;49.556;25.594;2023-04-20T09:21:33;19.57;3.93;
12542;PMS3003;6337;49.556;25.594;2023-04-20T09:24:03;11.47;3.10;
12542;PMS3003;6337;49.556;25.594;2023-04-20T09:26:39;31.17;3.97;
12542;PMS3003;6337;49.556;25.594;2023-04-20T09:29:14;20.73;3.97;
12542;PMS3003;6337;49.556;25.594;2023-04-20T09:31:56;9.50;2.70;
12542;PMS3003;6337;49.556;25.594;2023-04-20T09:34:24;9.67;3.43;
12542;PMS3003;6337;49.556;25.594;2023-04-20T09:36:52;29.90;3.27;
12542;PMS3003;6337;49.556;25.594;2023-04-20T09:39:23;9.83;2.80;
12542;PMS3003;6337;49.556;25.594;2023-04-20T09:41:53;13.27;3.43;
12542;PMS3003;6337;49.556;25.594;2023-04-20T09:44:28;22.03;3.30;
12542;PMS3003;6337;49.556;25.594;2023-04-20T09:46:57;13.30;3.07;
12542;PMS3003;6337;49.556;25.594;2023-04-20T09:49:29;13.80;3.30;
12542;PMS3003;6337;49.556;25.594;2023-04-20T09:51:59;12.47;3.67;
12542;PMS3003;6337;49.556;25.594;2023-04-20T09:54:41;21.90;5.10;
12542;PMS3003;6337;49.556;25.594;2023-04-20T09:59:40;10.70;2.67;
12542;PMS3003;6337;49.556;25.594;2023-04-20T10:02:23;11.93;3.70;
12542;PMS3003;6337;49.556;25.594;2023-04-20T10:04:53;17.30;3.20;
12542;PMS3003;6337;49.556;25.594;2023-04-20T10:07:24;12.00;3.50;
12542;PMS3003;6337;49.556;25.594;2023-04-20T10:12:49;8.03;2.70;
12542;PMS3003;6337;49.556;25.594;2023-04-20T10:15:21;15.03;4.20;
12542;PMS3003;6337;49.556;25.594;2023-04-20T10:17:53;23.07;3.97;
12542;PMS3003;6337;49.556;25.594;2023-04-20T10:20:22;21.83;5.37;
12542;PMS3003;6337;49.556;25.594;2023-04-20T10:22:51;19.23;3.90;
12542;PMS3003;6337;49.556;25.594;2023-04-20T10:25:21;22.93;4.30;
12542;PMS3003;6337;49.556;25.594;2023-04-20T10:27:54;18.63;3.13;
12542;PMS3003;6337;49.556;25.594;2023-04-20T10:30:23;19.20;2.77;
12542;PMS3003;6337;49.556;25.594;2023-04-20T10:33:01;6.60;2.07;
12542;PMS3003;6337;49.556;25.594;2023-04-20T10:35:39;11.83;2.70;
12542;PMS3003;6337;49.556;25.594;2023-04-20T10:38:08;6.73;2.27;
12542;PMS3003;6337;49.556;25.594;2023-04-20T10:40:39;16.07;4.07;
12542;PMS3003;6337;49.556;25.594;2023-04-20T10:43:18;13.17;3.40;
12542;PMS3003;6337;49.556;25.594;2023-04-20T10:45:47;12.90;3.43;
12542;PMS3003;6337;49.556;25.594;2023-04-20T10:48:16;8.13;3.00;
12542;PMS3003;6337;49.556;25.594;2023-04-20T10:50:44;13.93;3.37;
12542;PMS3003;6337;49.556;25.594;2023-04-20T10:53:18;15.47;3.17;
12542;PMS3003;6337;49.556;25.594;2023-04-20T10:55:56;33.97;3.80;
12542;PMS3003;6337;49.556;25.594;2023-04-20T10:58:26;22.07;3.90;
12542;PMS3003;6337;49.556;25.594;2023-04-20T11:00:57;10.70;3.30;
12542;PMS3003;6337;49.556;25.594;2023-04-20T11:03:26;21.57;2.90;
12542;PMS3003;6337;49.556;25.594;2023-04-20T11:05:55;17.77;4.67;
12542;PMS3003;6337;49.556;25.594;2023-04-20T11:08:34;16.30;4.17;
12542;PMS3003;6337;49.556;25.594;2023-04-20T11:11:04;13.23;3.50;
12542;PMS3003;6337;49.556;25.594;2023-04-20T11:13:34;10.30;2.90;
12542;PMS3003;6337;49.556;25.594;2023-04-20T11:16:08;13.87;3.57;
12542;PMS3003;6337;49.556;25.594;2023-04-20T11:18:46;10.00;2.97;
12542;PMS3003;6337;49.556;25.594;2023-04-20T11:21:14;12.03;2.97;
12542;PMS3003;6337;49.556;25.594;2023-04-20T11:23:42;12.77;2.97;
12542;PMS3003;6337;49.556;25.594;2023-04-20T11:26:09;7.73;3.60;
12542;PMS3003;6337;49.556;25.594;2023-04-20T11:28:40;23.43;3.93;
12542;PMS3003;6337;49.556;25.594;2023-04-20T11:31:18;25.53;3.30;
12542;PMS3003;6337;49.556;25.594;2023-04-20T11:33:46;18.00;4.80;
12542;PMS3003;6337;49.556;25.594;2023-04-20T11:36:18;19.63;3.10;
12542;PMS3003;6337;49.556;25.594;2023-04-20T11:38:47;10.83;2.43;
12542;PMS3003;6337;49.556;25.594;2023-04-20T11:41:18;20.23;4.30;
12542;PMS3003;6337;49.556;25.594;2023-04-20T11:43:49;15.90;3.77;
12542;PMS3003;6337;49.556;25.594;2023-04-20T11:46:18;15.53;3.27;
12542;PMS3003;6337;49.556;25.594;2023-04-20T11:48:47;16.00;3.50;
12542;PMS3003;6337;49.556;25.594;2023-04-20T11:51:18;13.50;3.30;
12542;PMS3003;6337;49.556;25.594;2023-04-20T11:53:52;16.23;3.03;
12542;PMS3003;6337;49.556;25.594;2023-04-20T11:56:24;6.40;3.73;
12542;PMS3003;6337;49.556;25.594;2023-04-20T11:58:54;19.93;4.00;
12542;PMS3003;6337;49.556;25.594;2023-04-20T12:01:22;10.90;2.80;
12542;PMS3003;6337;49.556;25.594;2023-04-20T12:03:50;9.47;2.60;
12542;PMS3003;6337;49.556;25.594;2023-04-20T12:06:19;12.47;2.97;
12542;PMS3003;6337;49.556;25.594;2023-04-20T12:08:47;18.57;2.93;
12542;PMS3003;6337;49.556;25.594;2023-04-20T12:11:15;16.10;3.60;
12542;PMS3003;6337;49.556;25.594;2023-04-20T12:13:43;15.50;3.47;
12542;PMS3003;6337;49.556;25.594;2023-04-20T12:16:15;14.43;3.37;
12542;PMS3003;6337;49.556;25.594;2023-04-20T12:18:44;12.13;3.00;
12542;PMS3003;6337;49.556;25.594;2023-04-20T12:21:11;20.40;4.40;
12542;PMS3003;6337;49.556;25.594;2023-04-20T12:23:47;22.20;4.60;
12542;PMS3003;6337;49.556;25.594;2023-04-20T12:26:15;11.50;3.53;
12542;PMS3003;6337;49.556;25.594;2023-04-20T12:28:50;16.77;4.27;
12542;PMS3003;6337;49.556;25.594;2023-04-20T12:31:22;18.13;5.20;
12542;PMS3003;6337;49.556;25.594;2023-04-20T12:33:50;12.20;3.10;
12542;PMS3003;6337;49.556;25.594;2023-04-20T12:36:22;15.93;3.70;
12542;PMS3003;6337;49.556;25.594;2023-04-20T12:38:50;17.67;3.30;
12542;PMS3003;6337;49.556;25.594;2023-04-20T12:41:20;14.33;3.93;
12542;PMS3003;6337;49.556;25.594;2023-04-20T12:43:48;15.77;3.43;
12542;PMS3003;6337;49.556;25.594;2023-04-20T12:46:17;7.80;3.67;
12542;PMS3003;6337;49.556;25.594;2023-04-20T12:48:46;15.80;3.73;
12542;PMS3003;6337;49.556;25.594;2023-04-20T12:51:14;15.93;3.60;
12542;PMS3003;6337;49.556;25.594;2023-04-20T12:53:42;10.80;4.13;
12542;PMS3003;6337;49.556;25.594;2023-04-20T12:56:11;16.07;3.73;
12542;PMS3003;6337;49.556;25.594;2023-04-20T12:58:42;17.13;4.47;
12542;PMS3003;6337;49.556;25.594;2023-04-20T13:01:10;17.03;4.00;
12542;PMS3003;6337;49.556;25.594;2023-04-20T13:03:38;30.60;4.90;
12542;PMS3003;6337;49.556;25.594;2023-04-20T13:06:08;25.43;3.10;
12542;PMS3003;6337;49.556;25.594;2023-04-20T13:08:37;6.73;4.07;
12542;PMS3003;6337;49.556;25.594;2023-04-20T13:11:04;10.23;3.20;
12542;PMS3003;6337;49.556;25.594;2023-04-20T13:13:37;9.03;4.10;
12542;PMS3003;6337;49.556;25.594;2023-04-20T13:16:08;20.97;3.60;
12542;PMS3003;6337;49.556;25.594;2023-04-20T13:18:36;7.40;2.97;
12542;PMS3003;6337;49.556;25.594;2023-04-20T13:21:04;22.40;2.77;
12542;PMS3003;6337;49.556;25.594;2023-04-20T13:23:35;19.57;5.10;
12542;PMS3003;6337;49.556;25.594;2023-04-20T13:26:04;18.87;4.20;
12542;PMS3003;6337;49.556;25.594;2023-04-20T13:28:35;19.43;4.10;
12542;PMS3003;6337;49.556;25.594;2023-04-20T13:31:03;17.37;5.10;
12542;PMS3003;6337;49.556;25.594;2023-04-20T13:33:31;27.70;4.20;
12542;PMS3003;6337;49.556;25.594;2023-04-20T13:36:01;10.33;3.10;
12542;PMS3003;6337;49.556;25.594;2023-04-20T13:38:31;25.03;3.97;
12542;PMS3003;6337;49.556;25.594;2023-04-20T13:41:01;20.47;5.20;
12542;PMS3003;6337;49.556;25.594;2023-04-20T13:43:33;7.37;3.43;
12542;PMS3003;6337;49.556;25.594;2023-04-20T13:46:10;16.43;3.47;
12542;PMS3003;6337;49.556;25.594;2023-04-20T13:48:39;7.50;3.53;
12542;PMS3003;6337;49.556;25.594;2023-04-20T13:51:07;14.43;3.50;
12542;PMS3003;6337;49.556;25.594;2023-04-20T13:53:34;17.37;3.87;
12542;PMS3003;6337;49.556;25.594;2023-04-20T13:56:06;11.30;3.33;
12542;PMS3003;6337;49.556;25.594;2023-04-20T13:58:36;21.57;3.53;
12542;PMS3003;6337;49.556;25.594;2023-04-20T14:01:06;9.93;3.37;
12542;PMS3003;6337;49.556;25.594;2023-04-20T14:03:34;16.63;4.20;
12542;PMS3003;6337;49.556;25.594;2023-04-20T14:06:02;13.40;3.80;
12542;PMS3003;6337;49.556;25.594;2023-04-20T14:08:31;20.90;3.90;
12542;PMS3003;6337;49.556;25.594;2023-04-20T14:10:59;18.00;3.93;
12542;PMS3003;6337;49.556;25.594;2023-04-20T14:13:30;18.53;4.67;
12542;PMS3003;6337;49.556;25.594;2023-04-20T14:15:57;17.53;3.80;
12542;PMS3003;6337;49.556;25.594;2023-04-20T14:18:26;12.83;4.17;
12542;PMS3003;6337;49.556;25.594;2023-04-20T14:20:56;11.57;4.47;
12542;PMS3003;6337;49.556;25.594;2023-04-20T14:23:24;10.30;3.83;
12542;PMS3003;6337;49.556;25.594;2023-04-20T14:25:52;13.83;3.57;
12542;PMS3003;6337;49.556;25.594;2023-04-20T14:28:36;10.53;3.30;
12542;PMS3003;6337;49.556;25.594;2023-04-20T14:31:04;12.17;3.80;
12542;PMS3003;6337;49.556;25.594;2023-04-20T14:33:32;21.50;4.13;
12542;PMS3003;6337;49.556;25.594;2023-04-20T14:36:01;4.63;2.73;
12542;PMS3003;6337;49.556;25.594;2023-04-20T14:38:29;9.83;3.50;
12542;PMS3003;6337;49.556;25.594;2023-04-20T14:40:58;13.53;3.23;
12542;PMS3003;6337;49.556;25.594;2023-04-20T14:43:26;13.80;4.33;
12542;PMS3003;6337;49.556;25.594;2023-04-20T14:45:57;12.60;3.37;
12542;PMS3003;6337;49.556;25.594;2023-04-20T14:48:28;18.30;4.30;
12542;PMS3003;6337;49.556;25.594;2023-04-20T14:50:56;9.97;4.23;
12542;PMS3003;6337;49.556;25.594;2023-04-20T14:53:31;18.23;3.20;
12542;PMS3003;6337;49.556;25.594;2023-04-20T14:55:59;7.93;3.33;
12542;PMS3003;6337;49.556;25.594;2023-04-20T14:58:28;12.63;4.17;
12542;PMS3003;6337;49.556;25.594;2023-04-20T15:00:58;10.20;3.40;
12542;PMS3003;6337;49.556;25.594;2023-04-20T15:03:27;23.20;4.00;
12542;PMS3003;6337;49.556;25.594;2023-04-20T15:05:57;26.43;4.57;
12542;PMS3003;6337;49.556;25.594;2023-04-20T15:08:26;16.67;4.10;
12542;PMS3003;6337;49.556;25.594;2023-04-20T15:10:58;24.07;6.00;
12542;PMS3003;6337;49.556;25.594;2023-04-20T15:13:28;21.90;4.60;
12542;PMS3003;6337;49.556;25.594;2023-04-20T15:15:55;14.43;4.67;
12542;PMS3003;6337;49.556;25.594;2023-04-20T15:18:27;20.30;4.67;
12542;PMS3003;6337;49.556;25.594;2023-04-20T15:20:54;19.47;6.27;
12542;PMS3003;6337;49.556;25.594;2023-04-20T15:23:23;10.23;3.83;